createdAt,value
2019-03-05T00:00:55.699Z,96902.00
2019-03-05T00:03:23.183Z,96902.72
2019-03-05T00:05:50.712Z,96906.64
2019-03-05T00:08:18.113Z,96900.39
2019-03-05T00:10:45.536Z,96901.19
2019-03-05T00:13:12.959Z,96904.17
2019-03-05T00:15:40.367Z,96904.17
2019-03-05T00:18:07.793Z,96903.89
2019-03-05T00:20:35.180Z,96905.05
2019-03-05T00:23:02.612Z,96916.69
2019-03-05T00:25:30.800Z,96914.09
2019-03-05T00:27:59.878Z,96910.17
2019-03-05T00:30:38.910Z,96917.38
2019-03-05T00:33:08.641Z,96917.55
2019-03-05T00:35:38.528Z,96918.30
2019-03-05T00:38:13.519Z,96916.85
2019-03-05T00:40:51.426Z,96922.69
2019-03-05T00:43:19.384Z,96912.43
2019-03-05T00:45:50.395Z,96919.24
2019-03-05T00:48:30.427Z,96916.35
2019-03-05T00:51:10.907Z,96913.46
2019-03-05T00:53:52.162Z,96910.09
2019-03-05T00:56:22.112Z,96907.48
2019-03-05T00:58:50.359Z,96914.30
2019-03-05T01:01:30.299Z,96913.77
2019-03-05T01:04:03.343Z,96908.51
2019-03-05T01:06:30.789Z,96917.74
2019-03-05T01:08:58.326Z,96913.19
2019-03-05T01:11:25.723Z,96912.23
2019-03-05T01:13:53.287Z,96915.19
2019-03-05T01:16:20.690Z,96922.48
2019-03-05T01:18:48.079Z,96921.47
2019-03-05T01:21:15.479Z,96931.63
2019-03-05T01:23:43.049Z,96907.20
2019-03-05T01:26:10.450Z,96907.53
2019-03-05T01:28:37.902Z,96916.21
2019-03-05T01:31:08.036Z,96916.37
2019-03-05T01:33:36.338Z,96925.86
2019-03-05T01:36:04.864Z,96929.51
2019-03-05T01:38:32.313Z,96930.95
2019-03-05T01:40:59.709Z,96931.63
2019-03-05T01:43:27.188Z,96944.32
2019-03-05T01:45:54.607Z,96938.53
2019-03-05T01:48:22.059Z,96937.42
2019-03-05T01:50:49.461Z,96934.61
2019-03-05T01:53:16.867Z,96937.42
2019-03-05T01:55:44.317Z,96931.53
2019-03-05T01:58:11.728Z,96938.41
2019-03-05T02:00:40.166Z,96940.59
2019-03-05T02:03:07.560Z,96937.15
2019-03-05T02:05:34.971Z,96943.41
2019-03-05T02:08:02.404Z,96939.93
2019-03-05T02:10:29.817Z,96940.96
2019-03-05T02:12:57.227Z,96948.16
2019-03-05T02:15:24.690Z,96947.47
2019-03-05T02:17:52.090Z,96942.59
2019-03-05T02:20:19.493Z,96933.92
2019-03-05T02:22:46.900Z,96948.38
2019-03-05T02:28:22.655Z,96930.08
2019-03-05T02:30:53.976Z,96939.80
2019-03-05T02:36:34.115Z,96937.37
2019-03-05T02:39:02.355Z,96935.17
2019-03-05T02:41:32.125Z,96935.37
2019-03-05T02:44:15.113Z,96936.70
2019-03-05T02:46:47.118Z,96945.70
2019-03-05T02:49:20.075Z,96944.31
2019-03-05T02:51:54.156Z,96943.00
2019-03-05T02:54:27.058Z,96943.62
2019-03-05T02:57:11.873Z,96947.53
2019-03-05T02:59:39.312Z,96946.67
2019-03-05T03:02:12.213Z,96945.90
2019-03-05T03:04:50.310Z,96948.42
2019-03-05T03:07:17.778Z,96946.11
2019-03-05T03:12:44.158Z,96946.05
2019-03-05T03:15:11.569Z,96948.52
2019-03-05T03:17:38.959Z,96951.87
2019-03-05T03:20:08.291Z,96949.67
2019-03-05T03:22:35.721Z,96955.58
2019-03-05T03:25:03.149Z,96954.94
2019-03-05T03:27:30.557Z,96953.91
2019-03-05T03:29:57.962Z,96955.36
2019-03-05T03:32:25.362Z,96956.95
2019-03-05T03:34:52.801Z,96953.31
2019-03-05T03:37:20.236Z,96950.86
2019-03-05T03:39:48.093Z,96950.40
2019-03-05T03:42:15.559Z,96954.31
2019-03-05T03:44:42.965Z,96956.45
2019-03-05T03:47:10.956Z,96965.08
2019-03-05T03:49:38.466Z,96956.45
2019-03-05T03:52:05.867Z,96961.69
2019-03-05T03:54:33.290Z,96961.08
2019-03-05T03:57:00.730Z,96961.84
2019-03-05T03:59:28.160Z,96970.45
2019-03-05T04:01:55.643Z,96967.12
2019-03-05T04:04:23.074Z,96973.13
2019-03-05T04:06:50.505Z,96967.42
2019-03-05T04:09:17.917Z,96970.00
2019-03-05T04:11:45.320Z,96967.55
2019-03-05T04:14:12.833Z,96970.16
2019-03-05T04:16:40.356Z,96975.25
2019-03-05T04:19:07.788Z,96970.83
2019-03-05T04:21:35.196Z,96970.58
2019-03-05T04:24:02.584Z,96974.87
2019-03-05T04:26:29.995Z,96983.67
2019-03-05T04:28:58.274Z,96977.82
2019-03-05T04:31:25.762Z,96979.81
2019-03-05T04:33:53.177Z,96978.50
2019-03-05T04:36:20.569Z,96975.24
2019-03-05T04:38:48.094Z,96984.59
2019-03-05T04:41:15.528Z,96983.42
2019-03-05T04:43:42.955Z,96986.47
2019-03-05T04:46:15.859Z,96985.69
2019-03-05T04:48:43.273Z,96992.84
2019-03-05T04:51:10.690Z,96995.15
2019-03-05T04:53:38.083Z,96991.08
2019-03-05T04:56:05.483Z,96992.92
2019-03-05T04:58:32.886Z,96990.86
2019-03-05T05:01:00.393Z,96987.83
2019-03-05T05:03:28.655Z,96987.15
2019-03-05T05:05:56.060Z,96982.34
2019-03-05T05:08:23.453Z,96984.95
2019-03-05T05:10:50.896Z,96976.23
2019-03-05T05:13:18.303Z,96982.32
2019-03-05T05:15:45.701Z,96982.19
2019-03-05T05:18:13.112Z,96980.52
2019-03-05T05:20:40.527Z,96986.84
2019-03-05T05:23:07.988Z,96995.23
2019-03-05T05:25:35.443Z,96988.09
2019-03-05T05:28:02.844Z,96992.41
2019-03-05T05:30:30.314Z,96990.47
2019-03-05T05:32:57.643Z,96985.90
2019-03-05T05:35:25.200Z,96992.43
2019-03-05T05:37:52.645Z,96985.02
2019-03-05T05:40:36.523Z,96994.97
2019-03-05T05:43:04.333Z,96991.22
2019-03-05T05:45:39.353Z,96989.70
2019-03-05T05:48:06.776Z,96993.34
2019-03-05T05:50:34.279Z,96990.05
2019-03-05T05:53:01.705Z,96998.09
2019-03-05T05:55:29.183Z,96995.84
2019-03-05T05:57:56.562Z,97003.39
2019-03-05T06:00:24.012Z,97012.17
2019-03-05T06:02:51.418Z,97012.59
2019-03-05T06:05:18.871Z,97011.47
2019-03-05T06:07:46.325Z,97006.22
2019-03-05T06:10:13.930Z,97010.16
2019-03-05T06:12:41.318Z,97012.20
2019-03-05T06:15:09.424Z,97012.15
2019-03-05T06:17:36.964Z,97009.05
2019-03-05T06:20:04.356Z,97018.34
2019-03-05T06:22:31.760Z,97014.61
2019-03-05T06:25:00.398Z,97015.47
2019-03-05T06:27:27.519Z,97008.78
2019-03-05T06:29:55.037Z,97011.63
2019-03-05T06:32:22.435Z,97014.06
2019-03-05T06:34:49.882Z,97018.53
2019-03-05T06:37:17.542Z,97020.80
2019-03-05T06:39:45.053Z,97019.63
2019-03-05T06:42:12.523Z,97024.02
2019-03-05T06:44:39.963Z,97025.38
2019-03-05T06:47:07.371Z,97017.56
2019-03-05T06:49:34.792Z,97022.50
2019-03-05T06:52:02.179Z,97027.09
2019-03-05T06:54:30.431Z,97019.38
2019-03-05T06:56:57.828Z,97017.81
2019-03-05T06:59:25.343Z,97014.83
2019-03-05T07:01:53.026Z,97010.48
2019-03-05T07:04:20.772Z,97018.74
2019-03-05T07:06:51.028Z,97010.43
2019-03-05T07:09:30.238Z,97018.52
2019-03-05T07:12:01.357Z,97008.06
2019-03-05T07:14:51.225Z,97023.41
2019-03-05T07:17:29.037Z,97018.27
2019-03-05T07:23:00.035Z,97026.39
2019-03-05T07:25:28.098Z,97031.80
2019-03-05T07:27:55.517Z,97025.56
2019-03-05T07:30:22.970Z,97035.41
2019-03-05T07:32:50.422Z,97034.41
2019-03-05T07:35:17.807Z,97038.14
2019-03-05T07:37:45.492Z,97030.90
2019-03-05T07:40:12.957Z,97031.95
2019-03-05T07:42:40.378Z,97036.92
2019-03-05T07:45:08.574Z,97043.91
2019-03-05T07:47:36.943Z,97040.71
2019-03-05T07:50:05.185Z,97044.92
2019-03-05T07:52:32.620Z,97040.67
2019-03-05T07:55:00.334Z,97042.75
2019-03-05T07:57:27.526Z,97039.11
2019-03-05T07:59:54.944Z,97047.78
2019-03-05T08:02:22.462Z,97035.59
2019-03-05T08:04:49.909Z,97030.39
2019-03-05T08:07:17.319Z,97040.20
2019-03-05T08:09:44.717Z,97042.20
2019-03-05T08:12:21.336Z,97038.42
2019-03-05T08:15:10.402Z,97029.11
2019-03-05T08:17:37.855Z,97042.88
2019-03-05T08:20:08.305Z,97035.52
2019-03-05T08:22:35.730Z,97032.51
2019-03-05T08:25:03.229Z,97029.61
2019-03-05T08:27:31.478Z,97034.02
2019-03-05T08:29:58.990Z,97038.23
2019-03-05T08:32:26.469Z,97043.14
2019-03-05T08:34:53.869Z,97040.64
2019-03-05T08:37:21.340Z,97035.80
2019-03-05T08:39:48.659Z,97034.53
2019-03-05T08:44:50.646Z,97042.28
2019-03-05T08:47:16.727Z,97036.44
2019-03-05T08:49:44.267Z,97042.69
2019-03-05T08:52:11.276Z,97034.61
2019-03-05T08:54:38.217Z,97046.99
2019-03-05T08:57:05.617Z,97046.27
2019-03-05T08:59:33.042Z,97039.19
2019-03-05T09:02:00.633Z,97028.80
2019-03-05T09:04:27.592Z,97038.09
2019-03-05T09:06:54.591Z,97038.25
2019-03-05T09:09:21.572Z,97037.47
2019-03-05T09:11:48.658Z,97044.20
2019-03-05T09:14:16.637Z,97054.05
2019-03-05T09:16:43.600Z,97047.47
2019-03-05T09:19:10.652Z,97048.08
2019-03-05T09:21:37.601Z,97048.64
2019-03-05T09:24:04.605Z,97052.06
2019-03-05T09:26:31.718Z,97046.31
2019-03-05T09:28:58.840Z,97039.94
2019-03-05T09:31:26.390Z,97039.25
2019-03-05T09:33:53.370Z,97039.70
2019-03-05T09:36:20.409Z,97045.42
2019-03-05T09:38:47.454Z,97044.28
2019-03-05T09:41:14.494Z,97036.27
2019-03-05T09:43:41.558Z,97038.52
2019-03-05T09:46:08.493Z,97042.39
2019-03-05T09:48:35.501Z,97046.58
2019-03-05T09:51:02.553Z,97036.77
2019-03-05T09:53:29.650Z,97044.67
2019-03-05T09:55:56.622Z,97045.50
2019-03-05T09:58:23.731Z,97034.88
2019-03-05T10:00:50.727Z,97037.83
2019-03-05T10:03:18.726Z,97045.05
2019-03-05T10:05:46.084Z,97031.38
2019-03-05T10:08:12.962Z,97024.83
2019-03-05T10:10:39.922Z,97017.73
2019-03-05T10:13:06.912Z,97009.84
2019-03-05T10:15:33.917Z,97013.86
2019-03-05T10:18:11.780Z,97010.14
2019-03-05T10:20:28.684Z,97015.55
2019-03-05T10:22:57.907Z,97018.31
2019-03-05T10:25:23.310Z,97006.95
2019-03-05T10:27:50.287Z,97015.89
2019-03-05T10:30:24.813Z,97007.65
2019-03-05T10:32:47.649Z,97009.19
2019-03-05T10:35:15.042Z,97006.82
2019-03-05T10:37:42.552Z,96995.79
2019-03-05T10:40:10.823Z,96994.09
2019-03-05T10:42:38.263Z,96977.55
2019-03-05T10:45:06.023Z,96979.38
2019-03-05T10:47:33.588Z,96978.08
2019-03-05T10:50:00.981Z,96976.28
2019-03-05T10:52:28.475Z,96970.36
2019-03-05T10:54:55.863Z,96968.13
2019-03-05T10:57:23.291Z,96968.80
2019-03-05T10:59:51.086Z,96975.66
2019-03-05T11:02:18.627Z,96977.21
2019-03-05T11:04:46.178Z,96978.73
2019-03-05T11:07:13.854Z,96981.58
2019-03-05T11:09:41.374Z,96972.16
2019-03-05T11:12:08.770Z,96982.84
2019-03-05T11:14:36.438Z,96989.39
2019-03-05T11:17:03.417Z,96998.52
2019-03-05T11:19:30.707Z,96990.55
2019-03-05T11:21:57.651Z,96990.87
2019-03-05T11:24:24.733Z,96985.94
2019-03-05T11:26:51.946Z,96986.41
2019-03-05T11:29:19.007Z,96972.68
2019-03-05T11:31:45.938Z,96995.76
2019-03-05T11:34:13.411Z,96996.17
2019-03-05T11:36:40.329Z,96975.11
2019-03-05T11:39:07.395Z,96963.02
2019-03-05T11:41:34.870Z,96960.41
2019-03-05T11:44:02.329Z,96944.87
2019-03-05T11:46:29.795Z,96944.83
2019-03-05T11:48:57.225Z,96934.80
2019-03-05T11:51:24.714Z,96935.94
2019-03-05T11:53:52.380Z,96942.98
2019-03-05T11:56:19.844Z,96942.09
2019-03-05T11:58:47.394Z,96944.44
2019-03-05T12:01:14.826Z,96940.02
2019-03-05T12:03:42.397Z,96932.42
2019-03-05T12:06:09.787Z,96922.70
2019-03-05T12:08:37.230Z,96928.73
2019-03-05T12:11:04.475Z,96925.47
2019-03-05T12:13:31.471Z,96916.26
2019-03-05T12:15:58.551Z,96921.34
2019-03-05T12:18:25.617Z,96904.70
2019-03-05T12:20:52.585Z,96921.66
2019-03-05T12:23:19.538Z,96919.92
2019-03-05T12:25:46.977Z,96929.99
2019-03-05T12:28:15.270Z,96928.28
2019-03-05T12:30:42.757Z,96908.28
2019-03-05T12:33:10.253Z,96910.22
2019-03-05T12:35:37.662Z,96907.05
2019-03-05T12:38:05.119Z,96895.08
2019-03-05T12:40:32.580Z,96893.83
2019-03-05T12:43:00.012Z,96887.69
2019-03-05T12:45:27.629Z,96894.02
2019-03-05T12:47:55.100Z,96883.99
2019-03-05T12:50:25.303Z,96885.16
2019-03-05T12:52:52.713Z,96879.45
2019-03-05T12:55:20.339Z,96874.05
2019-03-05T12:57:47.792Z,96865.77
2019-03-05T13:00:24.871Z,96868.58
2019-03-05T13:02:52.316Z,96876.76
2019-03-05T13:05:19.872Z,96871.80
2019-03-05T13:07:47.280Z,96881.17
2019-03-05T13:10:16.537Z,96880.06
2019-03-05T13:12:44.210Z,96879.38
2019-03-05T13:15:34.416Z,96891.04
2019-03-05T13:18:01.868Z,96877.02
2019-03-05T13:20:29.267Z,96881.20
2019-03-05T13:22:56.823Z,96885.38
2019-03-05T13:25:28.356Z,96882.16
2019-03-05T13:27:53.396Z,96889.49
2019-03-05T13:30:28.507Z,96887.40
2019-03-05T13:32:59.096Z,96890.80
2019-03-05T13:35:25.374Z,96879.97
2019-03-05T13:37:54.673Z,96888.39
2019-03-05T13:40:23.868Z,96886.13
2019-03-05T13:42:51.315Z,96894.70
2019-03-05T13:45:18.761Z,96885.58
2019-03-05T13:47:47.672Z,96870.06
2019-03-05T13:53:22.947Z,96883.13
2019-03-05T13:58:51.131Z,96889.55
2019-03-05T14:01:18.562Z,96873.05
2019-03-05T14:03:46.879Z,96871.18
2019-03-05T14:06:19.807Z,96866.06
2019-03-05T14:09:09.589Z,96871.52
2019-03-05T14:11:37.036Z,96862.72
2019-03-05T14:14:04.487Z,96853.84
2019-03-05T14:16:31.966Z,96847.06
2019-03-05T14:18:59.465Z,96850.84
2019-03-05T14:21:27.126Z,96854.16
2019-03-05T14:23:54.699Z,96856.64
2019-03-05T14:26:22.077Z,96857.28
2019-03-05T14:28:49.492Z,96854.56
2019-03-05T14:31:17.732Z,96847.45
2019-03-05T14:33:45.193Z,96855.49
2019-03-05T14:36:12.589Z,96848.24
2019-03-05T14:38:40.113Z,96846.91
2019-03-05T14:41:07.512Z,96853.78
2019-03-05T14:43:34.981Z,96838.50
2019-03-05T14:46:02.451Z,96846.91
2019-03-05T14:48:31.364Z,96854.05
2019-03-05T14:50:58.820Z,96847.91
2019-03-05T14:53:26.923Z,96842.30
2019-03-05T14:55:55.445Z,96842.00
2019-03-05T14:58:22.862Z,96841.67
2019-03-05T15:00:50.277Z,96837.67
2019-03-05T15:03:18.004Z,96837.53
2019-03-05T15:05:45.464Z,96836.03
2019-03-05T15:08:13.162Z,96838.41
2019-03-05T15:10:40.772Z,96837.37
2019-03-05T15:13:15.713Z,96835.65
2019-03-05T15:15:35.851Z,96834.61
2019-03-05T15:18:03.431Z,96838.02
2019-03-05T15:20:30.877Z,96840.06
2019-03-05T15:22:58.416Z,96836.40
2019-03-05T15:25:27.119Z,96844.80
2019-03-05T15:27:55.971Z,96842.92
2019-03-05T15:30:23.456Z,96849.12
2019-03-05T15:32:50.915Z,96851.72
2019-03-05T15:35:18.419Z,96849.98
2019-03-05T15:37:45.904Z,96843.24
2019-03-05T15:40:13.326Z,96830.80
2019-03-05T15:42:40.710Z,96829.77
2019-03-05T15:45:08.192Z,96832.64
2019-03-05T15:47:35.685Z,96829.11
2019-03-05T15:50:03.179Z,96838.06
2019-03-05T15:52:30.594Z,96846.27
2019-03-05T15:54:58.051Z,96842.70
2019-03-05T15:57:26.388Z,96837.20
2019-03-05T15:59:52.926Z,96835.15
2019-03-05T16:02:20.318Z,96833.83
2019-03-05T16:04:47.733Z,96830.63
2019-03-05T16:07:15.153Z,96836.67
2019-03-05T16:09:43.959Z,96824.98
2019-03-05T16:12:10.780Z,96823.02
2019-03-05T16:14:37.587Z,96829.61
2019-03-05T16:17:05.013Z,96832.73
2019-03-05T16:19:32.792Z,96838.05
2019-03-05T16:22:00.188Z,96838.92
2019-03-05T16:24:27.740Z,96833.17
2019-03-05T16:26:56.794Z,96829.42
2019-03-05T16:29:21.980Z,96829.92
2019-03-05T16:31:52.742Z,96817.63
2019-03-05T16:37:12.416Z,96820.87
2019-03-05T16:39:39.910Z,96815.26
2019-03-05T16:42:10.167Z,96820.43
2019-03-05T16:44:39.355Z,96821.79
2019-03-05T16:47:06.796Z,96821.81
2019-03-05T16:49:49.231Z,96826.86
2019-03-05T16:52:32.027Z,96817.28
2019-03-05T16:55:05.005Z,96812.72
2019-03-05T16:57:38.194Z,96819.34
2019-03-05T17:00:12.908Z,96822.11
2019-03-05T17:02:45.783Z,96823.22
2019-03-05T17:05:28.078Z,96826.89
2019-03-05T17:07:55.560Z,96827.14
2019-03-05T17:10:36.240Z,96826.81
2019-03-05T17:13:03.660Z,96828.61
2019-03-05T17:15:31.089Z,96827.81
2019-03-05T17:17:58.551Z,96826.11
2019-03-05T17:20:26.070Z,96830.65
2019-03-05T17:22:53.465Z,96841.84
2019-03-05T17:25:20.991Z,96844.90
2019-03-05T17:27:48.394Z,96848.81
2019-03-05T17:30:16.121Z,96846.23
2019-03-05T17:32:43.908Z,96842.67
2019-03-05T17:35:11.423Z,96841.03
2019-03-05T17:37:38.916Z,96851.47
2019-03-05T17:40:06.326Z,96848.70
2019-03-05T17:42:33.750Z,96860.22
2019-03-05T17:45:01.261Z,96865.61
2019-03-05T17:47:28.676Z,96868.52
2019-03-05T17:49:56.200Z,96871.88
2019-03-05T17:52:24.456Z,96877.31
2019-03-05T17:54:51.859Z,96878.91
2019-03-05T17:57:19.260Z,96877.09
2019-03-05T17:59:46.737Z,96877.56
2019-03-05T18:02:14.176Z,96883.43
2019-03-05T18:04:41.625Z,96882.83
2019-03-05T18:07:09.070Z,96876.69
2019-03-05T18:09:36.542Z,96881.16
2019-03-05T18:12:03.959Z,96884.46
2019-03-05T18:14:31.391Z,96888.52
2019-03-05T18:16:58.815Z,96887.17
2019-03-05T18:19:26.333Z,96894.73
2019-03-05T18:21:53.759Z,96883.37
2019-03-05T18:24:21.197Z,96879.08
2019-03-05T18:26:48.626Z,96886.38
2019-03-05T18:29:16.077Z,96883.61
2019-03-05T18:31:43.490Z,96878.34
2019-03-05T18:34:10.972Z,96885.45
2019-03-05T18:36:38.433Z,96890.77
2019-03-05T18:39:05.919Z,96894.89
2019-03-05T18:41:33.506Z,96898.91
2019-03-05T18:44:00.974Z,96896.34
2019-03-05T18:46:28.727Z,96896.41
2019-03-05T18:48:56.842Z,96894.97
2019-03-05T18:51:24.265Z,96898.78
2019-03-05T18:53:51.705Z,96894.94
2019-03-05T18:56:19.897Z,96892.73
2019-03-05T18:58:47.329Z,96891.23
2019-03-05T19:01:14.916Z,96890.86
2019-03-05T19:03:42.433Z,96889.48
2019-03-05T19:06:09.905Z,96900.55
2019-03-05T19:08:37.471Z,96896.50
2019-03-05T19:11:04.906Z,96897.40
2019-03-05T19:13:32.314Z,96898.16
2019-03-05T19:15:59.871Z,96906.29
2019-03-05T19:18:27.291Z,96897.22
2019-03-05T19:20:54.685Z,96899.54
2019-03-05T19:23:22.113Z,96898.75
2019-03-05T19:25:49.587Z,96898.39
2019-03-05T19:28:17.068Z,96900.19
2019-03-05T19:30:48.321Z,96895.28
2019-03-05T19:33:15.848Z,96894.75
2019-03-05T19:35:43.271Z,96901.63
2019-03-05T19:38:10.853Z,96897.36
2019-03-05T19:40:38.295Z,96902.41
2019-03-05T19:43:05.801Z,96898.37
2019-03-05T19:45:33.238Z,96889.13
2019-03-05T19:48:00.698Z,96895.17
2019-03-05T19:50:28.092Z,96893.72
2019-03-05T19:52:55.535Z,96900.52
2019-03-05T19:55:22.967Z,96897.91
2019-03-05T19:57:50.407Z,96901.28
2019-03-05T20:00:22.277Z,96904.11
2019-03-05T20:02:49.755Z,96898.95
2019-03-05T20:05:17.218Z,96905.20
2019-03-05T20:07:44.611Z,96903.70
2019-03-05T20:10:13.743Z,96902.27
2019-03-05T20:12:41.187Z,96897.20
2019-03-05T20:15:08.594Z,96905.91
2019-03-05T20:17:36.362Z,96903.86
2019-03-05T20:20:04.156Z,96909.27
2019-03-05T20:22:31.939Z,96910.28
2019-03-05T20:24:59.334Z,96905.60
2019-03-05T20:27:26.774Z,96910.94
2019-03-05T20:29:54.317Z,96911.45
2019-03-05T20:32:21.733Z,96914.89
2019-03-05T20:34:49.201Z,96917.45
2019-03-05T20:37:16.677Z,96908.31
2019-03-05T20:39:44.197Z,96909.47
2019-03-05T20:42:12.401Z,96913.84
2019-03-05T20:44:39.787Z,96907.59
2019-03-05T20:47:07.354Z,96901.81
2019-03-05T20:49:34.936Z,96896.37
2019-03-05T20:52:02.414Z,96896.95
2019-03-05T20:54:29.971Z,96896.88
2019-03-05T20:56:57.383Z,96899.53
2019-03-05T20:59:24.830Z,96905.39
2019-03-05T21:01:52.393Z,96903.52
2019-03-05T21:04:19.827Z,96897.66
2019-03-05T21:06:47.428Z,96894.91
2019-03-05T21:09:16.500Z,96893.00
2019-03-05T21:11:43.961Z,96890.69
2019-03-05T21:14:11.527Z,96899.27
2019-03-05T21:16:38.974Z,96890.93
2019-03-05T21:19:06.491Z,96888.38
2019-03-05T21:21:34.100Z,96891.80
2019-03-05T21:24:01.512Z,96888.03
2019-03-05T21:26:28.919Z,96882.07
2019-03-05T21:28:56.364Z,96881.35
2019-03-05T21:31:23.917Z,96875.55
2019-03-05T21:33:51.999Z,96879.89
2019-03-05T21:36:18.869Z,96877.45
2019-03-05T21:38:46.448Z,96880.45
2019-03-05T21:41:13.878Z,96871.91
2019-03-05T21:43:41.427Z,96875.98
2019-03-05T21:46:09.615Z,96875.23
2019-03-05T21:48:37.054Z,96864.78
2019-03-05T21:51:04.517Z,96870.64
2019-03-05T21:53:31.951Z,96873.58
2019-03-05T21:55:59.359Z,96862.89
2019-03-05T21:58:26.889Z,96864.38
2019-03-05T22:00:54.323Z,96861.13
2019-03-05T22:03:21.851Z,96861.69
2019-03-05T22:05:49.286Z,96849.12
2019-03-05T22:08:16.756Z,96848.18
2019-03-05T22:10:44.207Z,96842.77
2019-03-05T22:13:11.610Z,96837.03
2019-03-05T22:15:39.011Z,96846.65
2019-03-05T22:18:06.434Z,96842.73
2019-03-05T22:20:34.686Z,96842.70
2019-03-05T22:23:02.088Z,96844.73
2019-03-05T22:25:29.638Z,96854.16
2019-03-05T22:27:57.124Z,96853.98
2019-03-05T22:30:28.889Z,96846.84
2019-03-05T22:32:56.379Z,96841.20
2019-03-05T22:35:24.587Z,96842.23
2019-03-05T22:37:52.039Z,96839.34
2019-03-05T22:40:20.235Z,96837.34
2019-03-05T22:42:47.631Z,96835.03
2019-03-05T22:45:30.592Z,96839.62
2019-03-05T22:47:58.026Z,96839.56
2019-03-05T22:50:25.490Z,96846.43
2019-03-05T22:52:52.899Z,96843.48
2019-03-05T22:55:20.421Z,96846.42
2019-03-05T22:57:47.842Z,96842.11
2019-03-05T23:03:21.314Z,96847.87
2019-03-05T23:05:48.758Z,96836.72
2019-03-05T23:08:16.190Z,96830.95
2019-03-05T23:10:43.584Z,96832.68
2019-03-05T23:13:10.987Z,96832.04
2019-03-05T23:15:38.395Z,96832.17
2019-03-05T23:18:05.825Z,96819.25
2019-03-05T23:20:33.216Z,96823.75
2019-03-05T23:23:00.628Z,96817.66
2019-03-05T23:25:28.202Z,96815.61
2019-03-05T23:27:55.595Z,96807.27
2019-03-05T23:30:23.089Z,96801.81
2019-03-05T23:32:51.177Z,96805.64
2019-03-05T23:35:18.566Z,96801.30
2019-03-05T23:37:45.979Z,96795.11
2019-03-05T23:40:13.460Z,96796.30
2019-03-05T23:42:40.887Z,96787.07
2019-03-05T23:45:08.311Z,96787.44
2019-03-05T23:47:35.847Z,96786.53
2019-03-05T23:50:03.266Z,96790.65
2019-03-05T23:52:30.680Z,96775.08
2019-03-05T23:54:58.109Z,96777.32
2019-03-05T23:57:25.517Z,96777.30
2019-03-05T23:59:52.966Z,96778.41
